createdAt,value
2022-08-01T00:01:35.100Z,95553.22
2022-08-01T00:04:03.770Z,95559.94
2022-08-01T00:06:32.305Z,95566.34
2022-08-01T00:09:00.855Z,95567.03
2022-08-01T00:11:29.268Z,95574.97
2022-08-01T00:13:59.716Z,95575.53
2022-08-01T00:16:28.659Z,95559.63
2022-08-01T00:18:57.518Z,95569.22
2022-08-01T00:21:26.174Z,95573.31
2022-08-01T00:23:54.653Z,95568.66
2022-08-01T00:26:23.414Z,95574.34
2022-08-01T00:28:51.993Z,95573.44
2022-08-01T00:31:22.556Z,95562.69
2022-08-01T00:33:51.467Z,95566.44
2022-08-01T00:36:19.914Z,95519.84
2022-08-01T00:38:48.807Z,95564.69
2022-08-01T00:41:17.376Z,95565.34
2022-08-01T00:43:45.904Z,95573.78
2022-08-01T00:46:14.615Z,95574.44
2022-08-01T00:48:44.577Z,95573.53
2022-08-01T00:51:13.653Z,95543.53
2022-08-01T00:53:51.711Z,95555.38
2022-08-01T00:56:21.681Z,95570.50
2022-08-01T00:58:50.521Z,95564.56
2022-08-01T01:01:21.828Z,95554.88
2022-08-01T01:04:00.370Z,95559.50
2022-08-01T01:06:37.042Z,95553.88
2022-08-01T01:09:18.310Z,95554.53
2022-08-01T01:11:54.961Z,95550.53
2022-08-01T01:14:33.275Z,95394.19
2022-08-01T01:17:05.169Z,95542.28
2022-08-01T01:19:41.880Z,95548.84
2022-08-01T01:22:30.006Z,95539.41
2022-08-01T01:25:10.526Z,95543.75
2022-08-01T01:27:49.909Z,95542.34
2022-08-01T01:30:21.339Z,95546.06
2022-08-01T01:32:54.047Z,95507.97
2022-08-01T01:35:25.953Z,95548.03
2022-08-01T01:37:58.570Z,95538.69
2022-08-01T01:40:28.441Z,95540.97
2022-08-01T01:42:59.909Z,95538.69
2022-08-01T01:45:32.623Z,95482.38
2022-08-01T01:48:03.650Z,95539.50
2022-08-01T01:50:33.288Z,95550.44
2022-08-01T01:53:04.224Z,95505.56
2022-08-01T01:55:36.408Z,95533.59
2022-08-01T01:58:20.916Z,95527.72
2022-08-01T02:00:55.461Z,95495.19
2022-08-01T02:03:26.141Z,95480.63
2022-08-01T02:05:58.213Z,95524.63
2022-08-01T02:08:27.610Z,95531.88
2022-08-01T02:11:18.027Z,95533.19
2022-08-01T02:13:49.320Z,95529.06
2022-08-01T02:16:19.890Z,95502.44
2022-08-01T02:18:49.104Z,95537.09
2022-08-01T02:21:23.744Z,95538.22
2022-08-01T02:23:54.122Z,95532.75
2022-08-01T02:26:25.230Z,95542.06
2022-08-01T02:28:58.638Z,95541.28
2022-08-01T02:31:29.925Z,95536.59
2022-08-01T02:34:03.399Z,95528.75
2022-08-01T02:36:35.380Z,95526.03
2022-08-01T02:39:06.838Z,95530.84
2022-08-01T02:41:39.072Z,95453.47
2022-08-01T02:44:11.908Z,95527.91
2022-08-01T02:46:47.981Z,95484.00
2022-08-01T02:49:17.321Z,95529.03
2022-08-01T02:51:49.319Z,95531.41
2022-08-01T02:54:21.276Z,95539.94
2022-08-01T02:56:51.170Z,95537.22
2022-08-01T02:59:27.050Z,95546.66
2022-08-01T03:01:58.693Z,95540.56
2022-08-01T03:04:29.219Z,95534.00
2022-08-01T03:06:59.813Z,95536.06
2022-08-01T03:09:30.260Z,95537.69
2022-08-01T03:12:01.516Z,95539.13
2022-08-01T03:14:32.449Z,95545.72
2022-08-01T03:17:03.537Z,95534.34
2022-08-01T03:19:34.054Z,95537.72
2022-08-01T03:22:05.337Z,95539.19
2022-08-01T03:24:36.025Z,95544.47
2022-08-01T03:27:06.356Z,95542.06
2022-08-01T03:29:36.241Z,95545.13
2022-08-01T03:32:08.204Z,95548.97
2022-08-01T03:34:37.082Z,95553.94
2022-08-01T03:37:11.026Z,95551.22
2022-08-01T03:39:47.712Z,95558.94
2022-08-01T03:42:20.930Z,95538.25
2022-08-01T03:44:57.253Z,95552.84
2022-08-01T03:47:32.293Z,95559.91
2022-08-01T03:50:01.818Z,95561.97
2022-08-01T03:52:32.407Z,95538.25
2022-08-01T03:55:03.812Z,95568.84
2022-08-01T03:57:36.108Z,95562.28
2022-08-01T04:00:10.480Z,95565.16
2022-08-01T04:02:40.894Z,95566.47
2022-08-01T04:05:10.817Z,95570.63
2022-08-01T04:07:40.405Z,95565.16
2022-08-01T04:10:10.096Z,95573.31
2022-08-01T04:12:38.545Z,95543.03
2022-08-01T04:15:08.621Z,95570.09
2022-08-01T04:17:37.073Z,95567.88
2022-08-01T04:20:08.256Z,95542.22
2022-08-01T04:22:37.367Z,95575.06
2022-08-01T04:25:11.900Z,95574.41
2022-08-01T04:27:48.613Z,95572.13
2022-08-01T04:30:25.720Z,95564.47
2022-08-01T04:32:56.973Z,95579.22
2022-08-01T04:36:01.684Z,95546.38
2022-08-01T04:38:24.272Z,95583.69
2022-08-01T04:40:54.739Z,95543.81
2022-08-01T04:43:24.141Z,95587.34
2022-08-01T04:45:54.033Z,95591.50
2022-08-01T04:48:23.399Z,95586.03
2022-08-01T04:50:53.739Z,95591.97
2022-08-01T04:53:24.183Z,95594.69
2022-08-01T04:55:52.753Z,95599.03
2022-08-01T04:58:21.649Z,95595.66
2022-08-01T05:00:50.397Z,95597.28
2022-08-01T05:03:18.830Z,95601.13
2022-08-01T05:05:48.256Z,95507.09
2022-08-01T05:08:18.385Z,95604.03
2022-08-01T05:10:47.050Z,95600.03
2022-08-01T05:13:17.048Z,95599.22
2022-08-01T05:15:46.763Z,95600.03
2022-08-01T05:18:15.257Z,95592.31
2022-08-01T05:20:44.034Z,95546.81
2022-08-01T05:23:29.790Z,95592.91
2022-08-01T05:26:06.407Z,95554.00
2022-08-01T05:28:34.870Z,95598.19
2022-08-01T05:31:03.510Z,95602.06
2022-08-01T05:33:31.925Z,95608.00
2022-08-01T05:36:01.601Z,95612.03
2022-08-01T05:38:30.134Z,95623.78
2022-08-01T05:40:58.990Z,95621.09
2022-08-01T05:43:29.313Z,95609.53
2022-08-01T05:45:59.458Z,95611.31
2022-08-01T05:48:28.089Z,95619.50
2022-08-01T05:50:58.571Z,95620.31
2022-08-01T05:53:27.628Z,95616.59
2022-08-01T05:55:56.177Z,95570.97
2022-08-01T05:58:25.488Z,95615.31
2022-08-01T06:00:55.467Z,95609.84
2022-08-01T06:03:24.266Z,95554.75
2022-08-01T06:05:54.421Z,95610.81
2022-08-01T06:08:22.860Z,95616.28
2022-08-01T06:10:51.745Z,95615.13
2022-08-01T06:13:20.891Z,95617.22
2022-08-01T06:15:50.110Z,95617.34
2022-08-01T06:18:20.537Z,95634.38
2022-08-01T06:20:49.233Z,95616.56
2022-08-01T06:23:32.706Z,95629.16
2022-08-01T06:26:01.632Z,95638.44
2022-08-01T06:28:30.810Z,95629.44
2022-08-01T06:31:00.937Z,95602.47
2022-08-01T06:33:31.009Z,95629.31
2022-08-01T06:36:00.160Z,95580.63
2022-08-01T06:38:28.609Z,95607.09
2022-08-01T06:40:58.042Z,95622.84
2022-08-01T06:43:27.170Z,95629.78
2022-08-01T06:45:55.662Z,95630.22
2022-08-01T06:48:24.129Z,95634.22
2022-08-01T06:51:09.136Z,95634.22
2022-08-01T06:53:38.728Z,95635.94
2022-08-01T06:56:09.798Z,95635.13
2022-08-01T06:58:38.524Z,95638.22
2022-08-01T07:01:08.627Z,95645.25
2022-08-01T07:03:54.508Z,95645.25
2022-08-01T07:06:27.600Z,95612.34
2022-08-01T07:08:56.323Z,95649.41
2022-08-01T07:11:25.868Z,95622.31
2022-08-01T07:13:54.720Z,95642.44
2022-08-01T07:16:23.273Z,95642.09
2022-08-01T07:18:52.225Z,95652.06
2022-08-01T07:21:40.767Z,95644.75
2022-08-01T07:24:15.164Z,95642.97
2022-08-01T07:26:53.169Z,95645.47
2022-08-01T07:29:24.468Z,95653.22
2022-08-01T07:31:54.189Z,95628.75
2022-08-01T07:34:23.353Z,95657.97
2022-08-01T07:36:52.431Z,95660.94
2022-08-01T07:39:22.402Z,95656.91
2022-08-01T07:42:06.581Z,95657.47
2022-08-01T07:44:36.726Z,95665.81
2022-08-01T07:47:06.120Z,95632.66
2022-08-01T07:49:39.599Z,95662.44
2022-08-01T07:52:08.651Z,95660.50
2022-08-01T07:54:38.771Z,95655.31
2022-08-01T07:57:08.359Z,95663.03
2022-08-01T07:59:37.236Z,95670.94
2022-08-01T08:02:06.282Z,95668.28
2022-08-01T08:04:35.143Z,95674.03
2022-08-01T08:07:05.021Z,95668.31
2022-08-01T08:09:37.309Z,95669.72
2022-08-01T08:12:09.704Z,95685.94
2022-08-01T08:14:39.447Z,95685.97
2022-08-01T08:17:08.649Z,95690.25
2022-08-01T08:19:39.653Z,95695.28
2022-08-01T08:22:09.898Z,95695.84
2022-08-01T08:24:46.282Z,95704.22
2022-08-01T08:27:17.256Z,95703.28
2022-08-01T08:29:49.442Z,95712.03
2022-08-01T08:32:17.878Z,95711.13
2022-08-01T08:34:47.149Z,95720.31
2022-08-01T08:37:18.332Z,95709.75
2022-08-01T08:39:49.439Z,95712.16
2022-08-01T08:42:20.705Z,95712.50
2022-08-01T08:44:49.676Z,95711.19
2022-08-01T08:47:20.546Z,95710.69
2022-08-01T08:49:50.816Z,95719.16
2022-08-01T08:52:21.292Z,95724.94
2022-08-01T08:54:50.961Z,95726.41
2022-08-01T08:57:22.814Z,95715.63
2022-08-01T08:59:55.319Z,95720.09
2022-08-01T09:02:24.539Z,95719.25
2022-08-01T09:04:53.855Z,95723.19
2022-08-01T09:07:24.234Z,95722.38
2022-08-01T09:09:52.795Z,95728.44
2022-08-01T09:12:23.968Z,95734.22
2022-08-01T09:14:54.645Z,95730.22
2022-08-01T09:17:23.554Z,95731.22
2022-08-01T09:19:54.491Z,95737.63
2022-08-01T09:22:25.250Z,95730.38
2022-08-01T09:25:01.945Z,95731.13
2022-08-01T09:27:32.037Z,95729.59
2022-08-01T09:30:12.027Z,95627.34
2022-08-01T09:32:55.610Z,95741.63
2022-08-01T09:35:29.856Z,95737.66
2022-08-01T09:38:15.830Z,95743.94
2022-08-01T09:40:52.827Z,95736.88
2022-08-01T09:43:24.925Z,95726.53
2022-08-01T09:45:53.809Z,95743.28
2022-08-01T09:48:28.807Z,95745.34
2022-08-01T09:51:04.838Z,95732.13
2022-08-01T09:53:52.279Z,95729.66
2022-08-01T09:56:23.157Z,95715.91
2022-08-01T09:59:02.814Z,95726.31
2022-08-01T10:01:44.158Z,95732.03
2022-08-01T10:04:15.248Z,95738.91
2022-08-01T10:06:46.101Z,95747.84
2022-08-01T10:09:15.821Z,95738.00
2022-08-01T10:11:45.564Z,95736.53
2022-08-01T10:14:17.860Z,95736.19
2022-08-01T10:16:52.894Z,95729.66
2022-08-01T10:19:24.509Z,95738.69
2022-08-01T10:21:58.210Z,95704.00
2022-08-01T10:24:30.586Z,95726.25
2022-08-01T10:27:08.261Z,95736.31
2022-08-01T10:29:45.639Z,95735.91
2022-08-01T10:32:15.521Z,95714.06
2022-08-01T10:34:44.951Z,95735.59
2022-08-01T10:37:17.061Z,95734.19
2022-08-01T10:39:46.991Z,95723.59
2022-08-01T10:42:16.082Z,95683.41
2022-08-01T10:44:49.023Z,95703.44
2022-08-01T10:47:26.748Z,95726.09
2022-08-01T10:50:06.051Z,95737.50
2022-08-01T10:52:39.578Z,95725.41
2022-08-01T10:55:11.013Z,95734.09
2022-08-01T10:57:52.700Z,95733.53
2022-08-01T11:00:25.388Z,95736.88
2022-08-01T11:03:04.350Z,95668.06
2022-08-01T11:05:35.779Z,95725.53
2022-08-01T11:08:08.858Z,95734.41
2022-08-01T11:10:40.374Z,95731.22
2022-08-01T11:13:09.960Z,95729.84
2022-08-01T11:15:50.008Z,95734.66
2022-08-01T11:18:33.131Z,95713.84
2022-08-01T11:21:59.202Z,95725.28
2022-08-01T11:23:53.073Z,95717.03
2022-08-01T11:26:28.794Z,95722.06
2022-08-01T11:29:20.528Z,95711.09
2022-08-01T11:31:52.980Z,95720.94
2022-08-01T11:34:22.286Z,95728.00
2022-08-01T11:37:09.797Z,95718.06
2022-08-01T11:39:39.070Z,95715.75
2022-08-01T11:42:30.458Z,95724.31
2022-08-01T11:44:59.022Z,95725.03
2022-08-01T11:47:50.225Z,95715.88
2022-08-01T11:50:33.338Z,95718.00
2022-08-01T11:53:02.477Z,95687.16
2022-08-01T11:55:32.604Z,95718.66
2022-08-01T11:58:02.973Z,95722.00
2022-08-01T12:00:32.761Z,95715.06
2022-08-01T12:03:04.750Z,95725.16
2022-08-01T12:05:43.370Z,95720.09
2022-08-01T12:08:13.046Z,95642.56
2022-08-01T12:10:47.140Z,95721.78
2022-08-01T12:13:19.224Z,95717.56
2022-08-01T12:15:50.561Z,95715.69
2022-08-01T12:18:23.494Z,95712.38
2022-08-01T12:20:57.123Z,95709.91
2022-08-01T12:23:26.249Z,95711.00
2022-08-01T12:25:55.744Z,95713.50
2022-08-01T12:28:24.402Z,95718.09
2022-08-01T12:30:53.168Z,95715.94
2022-08-01T12:33:23.529Z,95631.03
2022-08-01T12:35:53.938Z,95719.31
2022-08-01T12:38:26.175Z,95680.22
2022-08-01T12:40:55.010Z,95706.81
2022-08-01T12:43:28.883Z,95708.44
2022-08-01T12:46:00.780Z,95698.44
2022-08-01T12:48:33.555Z,95704.31
2022-08-01T12:51:03.400Z,95709.81
2022-08-01T12:53:40.337Z,95707.25
2022-08-01T12:56:11.750Z,95702.69
2022-08-01T12:58:41.051Z,95667.03
2022-08-01T13:01:11.719Z,95702.47
2022-08-01T13:03:42.754Z,95681.44
2022-08-01T13:06:16.461Z,95694.88
2022-08-01T13:08:47.825Z,95700.66
2022-08-01T13:11:19.259Z,95698.19
2022-08-01T13:13:49.400Z,95666.50
2022-08-01T13:16:30.962Z,95697.69
2022-08-01T13:19:08.742Z,95691.88
2022-08-01T13:21:53.754Z,95672.41
2022-08-01T13:24:28.430Z,95688.53
2022-08-01T13:27:00.878Z,95689.66
2022-08-01T13:29:34.158Z,95687.53
2022-08-01T13:32:27.604Z,95699.06
2022-08-01T13:35:06.046Z,95677.91
2022-08-01T13:37:34.719Z,95692.69
2022-08-01T13:40:03.549Z,95693.69
2022-08-01T13:42:33.092Z,95686.75
2022-08-01T13:45:01.588Z,95676.94
2022-08-01T13:47:32.598Z,95688.13
2022-08-01T13:50:04.169Z,95694.16
2022-08-01T13:52:37.000Z,95690.16
2022-08-01T13:55:09.185Z,95688.66
2022-08-01T13:57:39.630Z,95647.44
2022-08-01T14:00:10.927Z,95692.66
2022-08-01T14:02:39.340Z,95698.09
2022-08-01T14:05:08.773Z,95693.28
2022-08-01T14:07:38.752Z,95695.84
2022-08-01T14:10:19.655Z,95696.81
2022-08-01T14:12:49.975Z,95682.44
2022-08-01T14:15:38.893Z,95677.09
2022-08-01T14:18:10.690Z,95699.00
2022-08-01T14:20:40.794Z,95668.75
2022-08-01T14:23:11.297Z,95686.69
2022-08-01T14:26:03.693Z,95697.78
2022-08-01T14:28:29.701Z,95676.34
2022-08-01T14:30:58.352Z,95696.81
2022-08-01T14:33:27.352Z,95663.13
2022-08-01T14:36:05.968Z,95699.13
2022-08-01T14:38:46.797Z,95703.09
2022-08-01T14:41:15.886Z,95692.19
2022-08-01T14:43:44.405Z,95695.56
2022-08-01T14:46:13.823Z,95687.47
2022-08-01T14:48:42.654Z,95695.44
2022-08-01T14:51:11.554Z,95689.72
2022-08-01T14:53:42.904Z,95694.66
2022-08-01T14:56:20.688Z,95684.28
2022-08-01T14:58:49.524Z,95694.03
2022-08-01T15:01:19.229Z,95623.63
2022-08-01T15:03:49.147Z,95696.13
2022-08-01T15:06:17.898Z,95697.06
2022-08-01T15:08:46.465Z,95700.41
2022-08-01T15:11:15.371Z,95694.97
2022-08-01T15:13:45.457Z,95693.66
2022-08-01T15:16:14.642Z,95681.03
2022-08-01T15:18:43.365Z,95690.97
2022-08-01T15:21:17.328Z,95696.22
2022-08-01T15:23:58.062Z,95698.22
2022-08-01T15:26:26.633Z,95711.28
2022-08-01T15:28:56.813Z,95712.78
2022-08-01T15:31:25.376Z,95704.91
2022-08-01T15:33:56.186Z,95692.88
2022-08-01T15:36:25.797Z,95705.22
2022-08-01T15:38:55.076Z,95664.59
2022-08-01T15:41:23.952Z,95703.19
2022-08-01T15:43:55.948Z,95672.41
2022-08-01T15:46:26.638Z,95701.94
2022-08-01T15:48:55.554Z,95705.88
2022-08-01T15:51:24.167Z,95708.53
2022-08-01T15:53:52.780Z,95645.06
2022-08-01T15:56:21.224Z,95708.13
2022-08-01T15:58:49.701Z,95706.09
2022-08-01T16:01:18.653Z,95685.03
2022-08-01T16:03:49.150Z,95678.88
2022-08-01T16:06:17.758Z,95707.97
2022-08-01T16:08:46.307Z,95709.56
2022-08-01T16:11:15.066Z,95700.50
2022-08-01T16:13:44.037Z,95695.38
2022-08-01T16:16:12.714Z,95706.38
2022-08-01T16:18:41.320Z,95705.06
2022-08-01T16:21:12.924Z,95706.13
2022-08-01T16:23:41.597Z,95699.69
2022-08-01T16:26:15.605Z,95701.13
2022-08-01T16:28:58.146Z,95703.72
2022-08-01T16:31:37.526Z,95710.25
2022-08-01T16:34:15.845Z,95688.53
2022-08-01T16:36:45.711Z,95706.59
2022-08-01T16:39:15.803Z,95685.69
2022-08-01T16:41:46.841Z,95714.56
2022-08-01T16:44:16.520Z,95705.16
2022-08-01T16:46:57.113Z,95708.63
2022-08-01T16:49:25.631Z,95706.22
2022-08-01T16:51:55.505Z,95705.31
2022-08-01T16:54:26.001Z,95699.34
2022-08-01T16:56:56.096Z,95709.84
2022-08-01T16:59:41.002Z,95704.63
2022-08-01T17:02:11.427Z,95714.03
2022-08-01T17:04:40.268Z,95707.66
2022-08-01T17:07:10.455Z,95658.16
2022-08-01T17:09:47.769Z,95707.91
2022-08-01T17:25:47.548Z,95727.94
2022-08-01T17:28:16.732Z,95737.13
2022-08-01T17:30:45.418Z,95667.63
2022-08-01T17:36:06.852Z,95722.31
2022-08-01T17:38:36.404Z,95726.56
2022-08-01T17:41:06.421Z,95718.94
2022-08-01T17:43:35.201Z,95724.84
2022-08-01T17:46:03.740Z,95736.66
2022-08-01T17:48:32.219Z,95743.31
2022-08-01T17:51:01.144Z,95717.66
2022-08-01T17:53:29.546Z,95735.50
2022-08-01T17:55:59.047Z,95736.19
2022-08-01T17:58:36.792Z,95692.63
2022-08-01T18:01:19.961Z,95737.91
2022-08-01T18:03:49.032Z,95618.81
2022-08-01T18:06:18.999Z,95679.25
2022-08-01T18:08:49.590Z,95757.16
2022-08-01T18:11:21.962Z,95772.72
2022-08-01T18:13:51.940Z,95762.44
2022-08-01T18:16:20.605Z,95719.97
2022-08-01T18:18:49.125Z,95755.16
2022-08-01T18:21:17.789Z,95756.34
2022-08-01T18:23:51.271Z,95765.03
2022-08-01T18:26:19.969Z,95764.78
2022-08-01T18:28:50.481Z,95749.28
2022-08-01T18:31:22.343Z,95771.00
2022-08-01T18:33:52.283Z,95773.19
2022-08-01T18:36:31.698Z,95775.34
2022-08-01T18:39:06.193Z,95775.13
2022-08-01T18:41:38.871Z,95778.44
2022-08-01T18:44:09.561Z,95791.25
2022-08-01T18:46:42.656Z,95787.94
2022-08-01T18:49:13.389Z,95787.34
2022-08-01T18:51:45.180Z,95748.13
2022-08-01T18:54:16.827Z,95796.63
2022-08-01T18:56:47.920Z,95806.19
2022-08-01T18:59:17.931Z,95809.16
2022-08-01T19:01:59.734Z,95815.06
2022-08-01T19:04:31.042Z,95814.00
2022-08-01T19:07:02.234Z,95817.75
2022-08-01T19:09:32.729Z,95752.97
2022-08-01T19:12:02.762Z,95781.63
2022-08-01T19:14:32.711Z,95760.38
2022-08-01T19:17:04.989Z,95835.72
2022-08-01T19:19:33.859Z,95846.09
2022-08-01T19:22:02.591Z,95796.72
2022-08-01T19:24:31.144Z,95849.16
2022-08-01T19:27:05.239Z,95855.81
2022-08-01T19:29:43.734Z,95853.25
2022-08-01T19:32:14.958Z,95850.72
2022-08-01T19:34:51.491Z,95852.19
2022-08-01T19:37:27.001Z,95863.50
2022-08-01T19:39:58.507Z,95662.59
2022-08-01T19:42:32.863Z,95832.53
2022-08-01T19:45:02.709Z,95836.75
2022-08-01T19:47:56.733Z,95869.50
2022-08-01T19:51:10.947Z,95652.28
2022-08-01T19:53:44.056Z,95856.56
2022-08-01T19:56:14.165Z,95867.13
2022-08-01T19:58:44.912Z,95834.75
2022-08-01T20:01:16.370Z,95866.50
2022-08-01T20:03:49.670Z,95874.28
2022-08-01T20:06:18.695Z,95714.88
2022-08-01T20:08:54.198Z,95878.34
2022-08-01T20:11:24.254Z,95838.88
2022-08-01T20:13:53.960Z,95825.44
2022-08-01T20:16:23.201Z,95854.63
2022-08-01T20:18:56.357Z,95881.94
2022-08-01T20:21:26.723Z,95882.78
2022-08-01T20:24:02.706Z,95893.91
2022-08-01T20:26:33.305Z,95895.25
2022-08-01T20:29:04.000Z,95873.91
2022-08-01T20:31:42.882Z,95856.72
2022-08-01T20:34:19.229Z,95877.78
2022-08-01T20:36:56.420Z,95897.22
2022-08-01T20:42:26.481Z,95877.63
2022-08-01T20:44:57.582Z,95786.81
2022-08-01T20:47:28.520Z,95889.84
2022-08-01T20:50:49.523Z,95896.28
2022-08-01T20:53:11.075Z,95894.06
2022-08-01T20:55:47.053Z,95894.06
2022-08-01T20:58:22.394Z,95893.25
2022-08-01T21:00:58.219Z,95895.19
2022-08-01T21:03:32.581Z,95901.78
2022-08-01T21:06:09.306Z,95890.56
2022-08-01T21:08:43.896Z,95905.50
2022-08-01T21:11:17.487Z,95902.31
2022-08-01T21:13:48.769Z,95911.19
2022-08-01T21:16:25.031Z,95908.59
2022-08-01T21:19:18.459Z,95908.28
2022-08-01T21:21:52.873Z,95913.75
2022-08-01T21:24:26.918Z,95914.56
2022-08-01T21:26:56.410Z,95916.94
2022-08-01T21:29:27.077Z,95906.34
2022-08-01T21:32:09.918Z,95913.28
2022-08-01T21:34:40.603Z,95913.94
2022-08-01T21:37:11.205Z,95903.28
2022-08-01T21:39:40.493Z,95778.25
2022-08-01T21:42:09.712Z,95922.94
2022-08-01T21:44:40.321Z,95906.56
2022-08-01T21:47:11.756Z,95920.38
2022-08-01T21:49:41.809Z,95928.25
2022-08-01T21:52:15.504Z,95931.19
2022-08-01T21:55:02.761Z,95898.69
2022-08-01T21:57:43.963Z,95942.94
2022-08-01T22:00:20.985Z,95934.41
2022-08-01T22:03:02.238Z,95940.06
2022-08-01T22:05:49.768Z,95938.59
2022-08-01T22:08:26.111Z,95921.06
2022-08-01T22:11:00.456Z,95884.59
2022-08-01T22:13:29.398Z,95940.19
2022-08-01T22:15:58.900Z,95940.50
2022-08-01T22:18:29.292Z,95912.06
2022-08-01T22:20:58.025Z,95935.69
2022-08-01T22:23:29.421Z,95945.31
2022-08-01T22:25:58.414Z,95946.31
2022-08-01T22:28:27.173Z,95945.31
2022-08-01T22:30:57.269Z,95945.97
2022-08-01T22:33:26.983Z,95948.22
2022-08-01T22:35:57.719Z,95945.81
2022-08-01T22:38:28.087Z,95943.72
2022-08-01T22:41:03.331Z,95950.44
2022-08-01T22:43:36.370Z,95947.88
2022-08-01T22:46:26.913Z,95942.75
2022-08-01T22:49:02.757Z,95945.78
2022-08-01T22:51:54.399Z,95939.84
2022-08-01T22:54:33.426Z,95928.91
2022-08-01T22:57:07.576Z,95952.22
2022-08-01T22:59:47.965Z,95946.75
2022-08-01T23:02:17.948Z,95947.06
2022-08-01T23:04:49.572Z,95945.13
2022-08-01T23:07:24.356Z,95940.47
2022-08-01T23:09:57.127Z,95945.13
2022-08-01T23:12:27.070Z,95941.28
2022-08-01T23:14:56.870Z,95945.63
2022-08-01T23:17:28.878Z,95937.41
2022-08-01T23:19:59.962Z,95940.16
2022-08-01T23:22:31.474Z,95944.16
2022-08-01T23:25:04.556Z,95936.31
2022-08-01T23:27:54.110Z,95938.56
2022-08-01T23:30:27.362Z,95930.69
2022-08-01T23:32:56.312Z,95933.22
2022-08-01T23:35:25.222Z,95926.81
2022-08-01T23:38:01.835Z,95920.06
2022-08-01T23:40:34.510Z,95904.94
2022-08-01T23:43:04.205Z,95922.78
2022-08-01T23:46:02.102Z,95914.09
2022-08-01T23:48:21.931Z,95921.59
2022-08-01T23:50:52.584Z,95925.78
2022-08-01T23:53:21.105Z,95928.03
2022-08-01T23:55:51.026Z,95917.41
2022-08-01T23:58:22.801Z,95918.69
